sensor_id;sensor_type;location;lat;lon;timestamp;temperature;humidity
22842;DHT22;11587;47.064;15.444;2022-07-06T00:01:42;18.80;99.90
22842;DHT22;11587;47.064;15.444;2022-07-06T00:04:08;18.90;99.90
22842;DHT22;11587;47.064;15.444;2022-07-06T00:06:34;18.90;99.90
22842;DHT22;11587;47.064;15.444;2022-07-06T00:09:00;18.90;99.90
22842;DHT22;11587;47.064;15.444;2022-07-06T00:11:26;18.80;99.90
22842;DHT22;11587;47.064;15.444;2022-07-06T00:16:18;19.00;99.90
22842;DHT22;11587;47.064;15.444;2022-07-06T00:18:45;19.10;99.90
22842;DHT22;11587;47.064;15.444;2022-07-06T00:21:11;19.00;99.90
22842;DHT22;11587;47.064;15.444;2022-07-06T00:23:40;19.00;99.90
22842;DHT22;11587;47.064;15.444;2022-07-06T00:28:31;18.90;99.90
22842;DHT22;11587;47.064;15.444;2022-07-06T00:30:57;18.90;99.90
22842;DHT22;11587;47.064;15.444;2022-07-06T00:33:23;18.90;99.90
22842;DHT22;11587;47.064;15.444;2022-07-06T00:35:49;18.80;99.90
22842;DHT22;11587;47.064;15.444;2022-07-06T00:40:41;18.70;99.90
22842;DHT22;11587;47.064;15.444;2022-07-06T00:43:07;18.80;99.90
22842;DHT22;11587;47.064;15.444;2022-07-06T00:45:33;18.80;99.90
22842;DHT22;11587;47.064;15.444;2022-07-06T00:47:59;18.80;99.90
22842;DHT22;11587;47.064;15.444;2022-07-06T00:50:24;18.80;99.90
22842;DHT22;11587;47.064;15.444;2022-07-06T00:55:18;18.70;99.90
22842;DHT22;11587;47.064;15.444;2022-07-06T00:57:45;18.70;99.90
22842;DHT22;11587;47.064;15.444;2022-07-06T01:00:13;18.70;99.90
22842;DHT22;11587;47.064;15.444;2022-07-06T01:02:40;18.60;99.90
22842;DHT22;11587;47.064;15.444;2022-07-06T01:07:31;18.60;99.90
22842;DHT22;11587;47.064;15.444;2022-07-06T01:09:58;18.60;99.90
22842;DHT22;11587;47.064;15.444;2022-07-06T01:12:24;18.60;99.90
22842;DHT22;11587;47.064;15.444;2022-07-06T01:14:50;18.60;99.90
22842;DHT22;11587;47.064;15.444;2022-07-06T01:22:08;18.50;99.90
22842;DHT22;11587;47.064;15.444;2022-07-06T01:24:35;18.40;99.90
22842;DHT22;11587;47.064;15.444;2022-07-06T01:27:03;18.40;99.90
22842;DHT22;11587;47.064;15.444;2022-07-06T01:29:29;18.40;99.90
22842;DHT22;11587;47.064;15.444;2022-07-06T01:31:55;18.50;99.90
22842;DHT22;11587;47.064;15.444;2022-07-06T01:34:21;18.50;99.90
22842;DHT22;11587;47.064;15.444;2022-07-06T01:36:47;18.40;99.90
22842;DHT22;11587;47.064;15.444;2022-07-06T01:39:13;18.30;99.90
22842;DHT22;11587;47.064;15.444;2022-07-06T01:41:39;18.20;99.90
22842;DHT22;11587;47.064;15.444;2022-07-06T01:48:56;18.10;99.90
22842;DHT22;11587;47.064;15.444;2022-07-06T01:51:23;18.00;99.90
22842;DHT22;11587;47.064;15.444;2022-07-06T01:53:50;18.00;99.90
22842;DHT22;11587;47.064;15.444;2022-07-06T01:56:16;18.00;99.90
22842;DHT22;11587;47.064;15.444;2022-07-06T02:01:12;17.90;99.90
22842;DHT22;11587;47.064;15.444;2022-07-06T02:03:38;17.80;99.90
22842;DHT22;11587;47.064;15.444;2022-07-06T02:06:05;17.80;99.90
22842;DHT22;11587;47.064;15.444;2022-07-06T02:08:32;17.90;99.90
22842;DHT22;11587;47.064;15.444;2022-07-06T02:10:58;17.70;99.90
22842;DHT22;11587;47.064;15.444;2022-07-06T02:15:50;17.70;99.90
22842;DHT22;11587;47.064;15.444;2022-07-06T02:18:16;17.80;99.90
22842;DHT22;11587;47.064;15.444;2022-07-06T02:20:42;17.80;99.90
22842;DHT22;11587;47.064;15.444;2022-07-06T02:23:08;17.90;99.90
22842;DHT22;11587;47.064;15.444;2022-07-06T02:30:25;18.00;99.90
22842;DHT22;11587;47.064;15.444;2022-07-06T02:32:51;18.10;99.90
22842;DHT22;11587;47.064;15.444;2022-07-06T02:35:17;18.20;99.90
22842;DHT22;11587;47.064;15.444;2022-07-06T02:40:09;18.20;99.90
22842;DHT22;11587;47.064;15.444;2022-07-06T02:42:35;18.10;99.90
22842;DHT22;11587;47.064;15.444;2022-07-06T02:45:02;18.20;99.90
22842;DHT22;11587;47.064;15.444;2022-07-06T02:47:28;18.20;99.90
22842;DHT22;11587;47.064;15.444;2022-07-06T02:49:54;18.10;99.90
22842;DHT22;11587;47.064;15.444;2022-07-06T02:52:20;18.00;99.90
22842;DHT22;11587;47.064;15.444;2022-07-06T02:57:15;18.00;99.90
22842;DHT22;11587;47.064;15.444;2022-07-06T02:59:42;18.00;99.90
22842;DHT22;11587;47.064;15.444;2022-07-06T03:02:08;17.90;99.90
22842;DHT22;11587;47.064;15.444;2022-07-06T03:09:28;17.80;99.90
22842;DHT22;11587;47.064;15.444;2022-07-06T03:11:54;17.80;99.90
22842;DHT22;11587;47.064;15.444;2022-07-06T03:14:20;17.70;99.90
22842;DHT22;11587;47.064;15.444;2022-07-06T03:16:46;17.80;99.90
22842;DHT22;11587;47.064;15.444;2022-07-06T03:21:37;17.70;99.90
22842;DHT22;11587;47.064;15.444;2022-07-06T03:24:04;17.80;99.90
22842;DHT22;11587;47.064;15.444;2022-07-06T03:26:30;17.70;99.90
22842;DHT22;11587;47.064;15.444;2022-07-06T03:28:56;17.70;99.90
22842;DHT22;11587;47.064;15.444;2022-07-06T03:31:22;17.70;99.90
22842;DHT22;11587;47.064;15.444;2022-07-06T03:33:48;17.70;99.90
22842;DHT22;11587;47.064;15.444;2022-07-06T03:36:14;17.70;99.90
22842;DHT22;11587;47.064;15.444;2022-07-06T03:38:39;17.70;99.90
22842;DHT22;11587;47.064;15.444;2022-07-06T03:41:05;17.80;99.90
22842;DHT22;11587;47.064;15.444;2022-07-06T03:43:31;17.80;99.90
22842;DHT22;11587;47.064;15.444;2022-07-06T03:48:23;17.80;99.90
22842;DHT22;11587;47.064;15.444;2022-07-06T03:50:48;17.90;99.90
22842;DHT22;11587;47.064;15.444;2022-07-06T03:53:14;17.80;99.90
22842;DHT22;11587;47.064;15.444;2022-07-06T03:55:40;17.90;99.90
22842;DHT22;11587;47.064;15.444;2022-07-06T04:00:32;17.90;99.90
22842;DHT22;11587;47.064;15.444;2022-07-06T04:02:58;18.00;99.90
22842;DHT22;11587;47.064;15.444;2022-07-06T04:05:24;17.90;99.90
22842;DHT22;11587;47.064;15.444;2022-07-06T04:07:50;18.00;99.90
22842;DHT22;11587;47.064;15.444;2022-07-06T04:15:07;18.20;99.90
22842;DHT22;11587;47.064;15.444;2022-07-06T04:17:34;18.30;99.90
22842;DHT22;11587;47.064;15.444;2022-07-06T04:20:18;18.30;99.90
22842;DHT22;11587;47.064;15.444;2022-07-06T04:22:45;18.20;99.90
22842;DHT22;11587;47.064;15.444;2022-07-06T04:30:03;18.00;99.90
22842;DHT22;11587;47.064;15.444;2022-07-06T04:32:30;18.00;99.90
22842;DHT22;11587;47.064;15.444;2022-07-06T04:34:55;18.10;99.90
22842;DHT22;11587;47.064;15.444;2022-07-06T04:37:22;18.10;99.90
22842;DHT22;11587;47.064;15.444;2022-07-06T04:44:39;18.00;99.90
22842;DHT22;11587;47.064;15.444;2022-07-06T04:47:05;17.90;99.90
22842;DHT22;11587;47.064;15.444;2022-07-06T04:49:31;18.00;99.90
22842;DHT22;11587;47.064;15.444;2022-07-06T04:54:22;18.00;99.90
22842;DHT22;11587;47.064;15.444;2022-07-06T04:56:48;18.00;99.90
22842;DHT22;11587;47.064;15.444;2022-07-06T04:59:14;18.00;99.90
22842;DHT22;11587;47.064;15.444;2022-07-06T05:01:41;18.00;99.90
22842;DHT22;11587;47.064;15.444;2022-07-06T05:04:07;18.00;99.90
22842;DHT22;11587;47.064;15.444;2022-07-06T05:08:59;18.00;99.90
22842;DHT22;11587;47.064;15.444;2022-07-06T05:11:26;18.10;99.90
22842;DHT22;11587;47.064;15.444;2022-07-06T05:13:52;18.10;99.90
22842;DHT22;11587;47.064;15.444;2022-07-06T05:16:19;18.10;99.90
22842;DHT22;11587;47.064;15.444;2022-07-06T05:21:10;18.10;99.90
22842;DHT22;11587;47.064;15.444;2022-07-06T05:23:37;18.10;99.90
22842;DHT22;11587;47.064;15.444;2022-07-06T05:26:03;18.20;99.90
22842;DHT22;11587;47.064;15.444;2022-07-06T05:28:29;18.20;99.90
22842;DHT22;11587;47.064;15.444;2022-07-06T05:30:54;18.20;99.90
22842;DHT22;11587;47.064;15.444;2022-07-06T05:35:46;18.30;99.90
22842;DHT22;11587;47.064;15.444;2022-07-06T05:38:12;18.40;99.90
22842;DHT22;11587;47.064;15.444;2022-07-06T05:40:38;18.40;99.90
22842;DHT22;11587;47.064;15.444;2022-07-06T05:43:03;18.60;99.90
22842;DHT22;11587;47.064;15.444;2022-07-06T05:45:29;18.70;99.90
22842;DHT22;11587;47.064;15.444;2022-07-06T05:50:21;18.70;99.90
22842;DHT22;11587;47.064;15.444;2022-07-06T05:53:16;18.80;99.90
22842;DHT22;11587;47.064;15.444;2022-07-06T05:55:42;18.90;99.90
22842;DHT22;11587;47.064;15.444;2022-07-06T05:58:08;18.90;99.90
22842;DHT22;11587;47.064;15.444;2022-07-06T06:00:34;19.00;99.90
22842;DHT22;11587;47.064;15.444;2022-07-06T06:05:25;19.10;99.90
22842;DHT22;11587;47.064;15.444;2022-07-06T06:07:52;19.20;99.90
22842;DHT22;11587;47.064;15.444;2022-07-06T06:10:19;19.30;99.90
22842;DHT22;11587;47.064;15.444;2022-07-06T06:12:45;19.40;99.90
22842;DHT22;11587;47.064;15.444;2022-07-06T06:15:11;19.40;99.90
22842;DHT22;11587;47.064;15.444;2022-07-06T06:17:38;19.50;99.90
22842;DHT22;11587;47.064;15.444;2022-07-06T06:20:06;19.50;99.90
22842;DHT22;11587;47.064;15.444;2022-07-06T06:22:50;19.60;99.90
22842;DHT22;11587;47.064;15.444;2022-07-06T06:25:36;19.70;99.90
22842;DHT22;11587;47.064;15.444;2022-07-06T06:28:04;19.80;99.90
22842;DHT22;11587;47.064;15.444;2022-07-06T06:30:31;19.90;99.90
22842;DHT22;11587;47.064;15.444;2022-07-06T06:33:17;19.90;99.90
22842;DHT22;11587;47.064;15.444;2022-07-06T06:35:47;19.90;99.90
22842;DHT22;11587;47.064;15.444;2022-07-06T06:38:14;19.90;99.90
22842;DHT22;11587;47.064;15.444;2022-07-06T06:40:41;20.00;99.90
22842;DHT22;11587;47.064;15.444;2022-07-06T06:43:07;20.10;99.90
22842;DHT22;11587;47.064;15.444;2022-07-06T06:45:34;20.20;99.90
22842;DHT22;11587;47.064;15.444;2022-07-06T06:48:00;20.20;99.90
22842;DHT22;11587;47.064;15.444;2022-07-06T06:50:26;20.40;99.90
22842;DHT22;11587;47.064;15.444;2022-07-06T06:52:52;20.50;99.90
22842;DHT22;11587;47.064;15.444;2022-07-06T06:55:18;20.50;99.90
22842;DHT22;11587;47.064;15.444;2022-07-06T06:57:46;20.50;99.90
22842;DHT22;11587;47.064;15.444;2022-07-06T07:00:13;20.60;99.90
22842;DHT22;11587;47.064;15.444;2022-07-06T07:02:39;20.50;99.90
22842;DHT22;11587;47.064;15.444;2022-07-06T07:05:07;20.60;99.90
22842;DHT22;11587;47.064;15.444;2022-07-06T07:07:32;20.70;99.90
22842;DHT22;11587;47.064;15.444;2022-07-06T07:09:59;20.90;99.90
22842;DHT22;11587;47.064;15.444;2022-07-06T07:12:25;21.00;99.90
22842;DHT22;11587;47.064;15.444;2022-07-06T07:14:51;21.10;99.90
22842;DHT22;11587;47.064;15.444;2022-07-06T07:17:16;21.20;99.90
22842;DHT22;11587;47.064;15.444;2022-07-06T07:19:42;21.30;99.90
22842;DHT22;11587;47.064;15.444;2022-07-06T07:22:08;21.30;99.90
22842;DHT22;11587;47.064;15.444;2022-07-06T07:24:35;21.50;99.90
22842;DHT22;11587;47.064;15.444;2022-07-06T07:27:01;21.40;99.90
22842;DHT22;11587;47.064;15.444;2022-07-06T07:29:27;21.50;99.90
22842;DHT22;11587;47.064;15.444;2022-07-06T07:31:53;21.60;99.90
22842;DHT22;11587;47.064;15.444;2022-07-06T07:34:19;21.70;99.90
22842;DHT22;11587;47.064;15.444;2022-07-06T07:36:44;21.60;99.90
22842;DHT22;11587;47.064;15.444;2022-07-06T07:39:10;21.50;99.90
22842;DHT22;11587;47.064;15.444;2022-07-06T07:41:36;21.60;99.90
22842;DHT22;11587;47.064;15.444;2022-07-06T07:44:02;22.00;99.90
22842;DHT22;11587;47.064;15.444;2022-07-06T07:46:28;22.30;99.90
22842;DHT22;11587;47.064;15.444;2022-07-06T07:48:54;22.20;99.90
22842;DHT22;11587;47.064;15.444;2022-07-06T07:51:20;22.10;99.90
22842;DHT22;11587;47.064;15.444;2022-07-06T07:53:46;22.10;99.90
22842;DHT22;11587;47.064;15.444;2022-07-06T07:56:12;22.30;99.90
22842;DHT22;11587;47.064;15.444;2022-07-06T07:58:38;22.40;99.90
22842;DHT22;11587;47.064;15.444;2022-07-06T08:01:03;22.20;99.90
22842;DHT22;11587;47.064;15.444;2022-07-06T08:03:31;22.20;99.70
22842;DHT22;11587;47.064;15.444;2022-07-06T08:05:57;22.30;99.80
22842;DHT22;11587;47.064;15.444;2022-07-06T08:08:24;22.50;97.40
22842;DHT22;11587;47.064;15.444;2022-07-06T08:10:49;22.70;96.40
22842;DHT22;11587;47.064;15.444;2022-07-06T08:13:15;22.70;96.30
22842;DHT22;11587;47.064;15.444;2022-07-06T08:15:41;22.90;95.20
22842;DHT22;11587;47.064;15.444;2022-07-06T08:18:08;23.00;94.00
22842;DHT22;11587;47.064;15.444;2022-07-06T08:20:36;23.20;94.00
22842;DHT22;11587;47.064;15.444;2022-07-06T08:23:02;23.60;93.00
22842;DHT22;11587;47.064;15.444;2022-07-06T08:25:31;23.70;92.50
22842;DHT22;11587;47.064;15.444;2022-07-06T08:27:58;23.70;93.30
22842;DHT22;11587;47.064;15.444;2022-07-06T08:30:24;23.80;92.30
22842;DHT22;11587;47.064;15.444;2022-07-06T08:32:50;24.00;92.00
22842;DHT22;11587;47.064;15.444;2022-07-06T08:35:16;24.00;91.70
22842;DHT22;11587;47.064;15.444;2022-07-06T08:37:42;24.10;91.90
22842;DHT22;11587;47.064;15.444;2022-07-06T08:40:08;24.00;91.00
22842;DHT22;11587;47.064;15.444;2022-07-06T08:42:35;24.00;91.50
22842;DHT22;11587;47.064;15.444;2022-07-06T08:45:03;24.00;91.20
22842;DHT22;11587;47.064;15.444;2022-07-06T08:47:31;24.00;90.40
22842;DHT22;11587;47.064;15.444;2022-07-06T08:49:57;24.20;88.30
22842;DHT22;11587;47.064;15.444;2022-07-06T08:52:24;24.20;86.80
22842;DHT22;11587;47.064;15.444;2022-07-06T08:54:50;24.30;86.20
22842;DHT22;11587;47.064;15.444;2022-07-06T08:57:16;24.30;85.70
22842;DHT22;11587;47.064;15.444;2022-07-06T08:59:42;24.30;88.30
22842;DHT22;11587;47.064;15.444;2022-07-06T09:02:10;24.30;85.40
22842;DHT22;11587;47.064;15.444;2022-07-06T09:04:37;24.40;84.20
22842;DHT22;11587;47.064;15.444;2022-07-06T09:07:06;24.40;84.70
22842;DHT22;11587;47.064;15.444;2022-07-06T09:09:33;24.70;84.20
22842;DHT22;11587;47.064;15.444;2022-07-06T09:11:59;24.60;84.70
22842;DHT22;11587;47.064;15.444;2022-07-06T09:14:25;24.60;84.00
22842;DHT22;11587;47.064;15.444;2022-07-06T09:17:01;24.60;83.90
22842;DHT22;11587;47.064;15.444;2022-07-06T09:19:30;24.70;83.60
22842;DHT22;11587;47.064;15.444;2022-07-06T09:21:57;24.70;83.40
22842;DHT22;11587;47.064;15.444;2022-07-06T09:24:23;24.90;82.30
22842;DHT22;11587;47.064;15.444;2022-07-06T09:26:50;24.90;82.60
22842;DHT22;11587;47.064;15.444;2022-07-06T09:29:16;24.80;83.20
22842;DHT22;11587;47.064;15.444;2022-07-06T09:31:41;24.90;83.20
22842;DHT22;11587;47.064;15.444;2022-07-06T09:34:08;25.00;83.40
22842;DHT22;11587;47.064;15.444;2022-07-06T09:36:43;25.00;84.30
22842;DHT22;11587;47.064;15.444;2022-07-06T09:41:47;25.10;82.90
22842;DHT22;11587;47.064;15.444;2022-07-06T09:44:21;25.00;83.40
22842;DHT22;11587;47.064;15.444;2022-07-06T09:46:48;25.20;83.20
22842;DHT22;11587;47.064;15.444;2022-07-06T09:49:18;25.30;80.10
22842;DHT22;11587;47.064;15.444;2022-07-06T09:51:46;25.30;83.20
22842;DHT22;11587;47.064;15.444;2022-07-06T09:54:14;25.50;79.00
22842;DHT22;11587;47.064;15.444;2022-07-06T09:56:42;25.40;80.60
22842;DHT22;11587;47.064;15.444;2022-07-06T09:59:09;25.40;81.20
22842;DHT22;11587;47.064;15.444;2022-07-06T10:01:39;25.40;80.40
22842;DHT22;11587;47.064;15.444;2022-07-06T10:04:10;25.30;82.30
22842;DHT22;11587;47.064;15.444;2022-07-06T10:06:41;25.30;81.40
22842;DHT22;11587;47.064;15.444;2022-07-06T10:09:08;25.20;81.30
22842;DHT22;11587;47.064;15.444;2022-07-06T10:11:38;25.30;82.40
22842;DHT22;11587;47.064;15.444;2022-07-06T10:16:30;25.20;80.20
22842;DHT22;11587;47.064;15.444;2022-07-06T10:18:57;25.30;81.30
22842;DHT22;11587;47.064;15.444;2022-07-06T10:21:24;25.40;80.60
22842;DHT22;11587;47.064;15.444;2022-07-06T10:23:52;25.40;78.20
22842;DHT22;11587;47.064;15.444;2022-07-06T10:26:19;25.50;76.10
22842;DHT22;11587;47.064;15.444;2022-07-06T10:28:47;25.60;75.20
22842;DHT22;11587;47.064;15.444;2022-07-06T10:31:14;25.70;76.40
22842;DHT22;11587;47.064;15.444;2022-07-06T10:33:41;25.70;76.20
22842;DHT22;11587;47.064;15.444;2022-07-06T10:36:08;26.10;73.90
22842;DHT22;11587;47.064;15.444;2022-07-06T10:38:35;26.20;74.60
22842;DHT22;11587;47.064;15.444;2022-07-06T10:41:08;26.40;72.10
22842;DHT22;11587;47.064;15.444;2022-07-06T10:43:36;26.40;74.30
22842;DHT22;11587;47.064;15.444;2022-07-06T10:46:08;26.40;73.90
22842;DHT22;11587;47.064;15.444;2022-07-06T10:48:46;26.60;72.20
22842;DHT22;11587;47.064;15.444;2022-07-06T10:51:21;26.60;71.40
22842;DHT22;11587;47.064;15.444;2022-07-06T10:54:04;26.70;70.20
22842;DHT22;11587;47.064;15.444;2022-07-06T10:56:53;26.80;70.10
22842;DHT22;11587;47.064;15.444;2022-07-06T10:59:22;26.90;73.10
22842;DHT22;11587;47.064;15.444;2022-07-06T11:04:36;26.90;72.70
22842;DHT22;11587;47.064;15.444;2022-07-06T11:07:12;27.00;75.50
22842;DHT22;11587;47.064;15.444;2022-07-06T11:09:38;26.90;73.70
22842;DHT22;11587;47.064;15.444;2022-07-06T11:12:26;27.10;76.60
22842;DHT22;11587;47.064;15.444;2022-07-06T11:14:52;27.30;70.80
22842;DHT22;11587;47.064;15.444;2022-07-06T11:17:20;27.20;71.20
22842;DHT22;11587;47.064;15.444;2022-07-06T11:19:57;27.20;71.60
22842;DHT22;11587;47.064;15.444;2022-07-06T11:22:26;27.30;76.00
22842;DHT22;11587;47.064;15.444;2022-07-06T11:24:52;27.10;74.10
22842;DHT22;11587;47.064;15.444;2022-07-06T11:27:18;27.40;73.80
22842;DHT22;11587;47.064;15.444;2022-07-06T11:29:45;27.70;70.10
22842;DHT22;11587;47.064;15.444;2022-07-06T11:32:11;27.90;69.30
22842;DHT22;11587;47.064;15.444;2022-07-06T11:34:44;27.90;69.00
22842;DHT22;11587;47.064;15.444;2022-07-06T11:37:14;28.00;71.30
22842;DHT22;11587;47.064;15.444;2022-07-06T11:39:41;28.00;71.00
22842;DHT22;11587;47.064;15.444;2022-07-06T11:42:09;28.20;71.20
22842;DHT22;11587;47.064;15.444;2022-07-06T11:44:36;28.30;73.80
22842;DHT22;11587;47.064;15.444;2022-07-06T11:47:03;28.30;73.50
22842;DHT22;11587;47.064;15.444;2022-07-06T11:49:30;28.60;73.80
22842;DHT22;11587;47.064;15.444;2022-07-06T11:51:57;28.90;67.30
22842;DHT22;11587;47.064;15.444;2022-07-06T11:54:24;29.00;66.60
22842;DHT22;11587;47.064;15.444;2022-07-06T11:56:55;29.30;68.40
22842;DHT22;11587;47.064;15.444;2022-07-06T11:59:23;29.70;64.20
22842;DHT22;11587;47.064;15.444;2022-07-06T12:01:49;30.20;64.90
22842;DHT22;11587;47.064;15.444;2022-07-06T12:04:17;30.90;62.80
22842;DHT22;11587;47.064;15.444;2022-07-06T12:06:43;31.70;63.50
22842;DHT22;11587;47.064;15.444;2022-07-06T12:09:10;31.90;61.10
22842;DHT22;11587;47.064;15.444;2022-07-06T12:11:37;32.40;60.40
22842;DHT22;11587;47.064;15.444;2022-07-06T12:14:19;32.70;57.80
22842;DHT22;11587;47.064;15.444;2022-07-06T12:16:48;33.60;58.50
22842;DHT22;11587;47.064;15.444;2022-07-06T12:19:15;33.60;56.70
22842;DHT22;11587;47.064;15.444;2022-07-06T12:21:49;34.10;60.80
22842;DHT22;11587;47.064;15.444;2022-07-06T12:24:27;34.30;55.40
22842;DHT22;11587;47.064;15.444;2022-07-06T12:26:54;32.70;56.00
22842;DHT22;11587;47.064;15.444;2022-07-06T12:29:22;32.30;62.30
22842;DHT22;11587;47.064;15.444;2022-07-06T12:31:56;32.70;55.90
22842;DHT22;11587;47.064;15.444;2022-07-06T12:34:29;34.10;57.00
22842;DHT22;11587;47.064;15.444;2022-07-06T12:37:06;34.20;54.40
22842;DHT22;11587;47.064;15.444;2022-07-06T12:39:43;34.90;61.30
22842;DHT22;11587;47.064;15.444;2022-07-06T12:42:09;35.60;56.40
22842;DHT22;11587;47.064;15.444;2022-07-06T12:44:48;35.70;53.20
22842;DHT22;11587;47.064;15.444;2022-07-06T12:47:21;35.30;58.20
22842;DHT22;11587;47.064;15.444;2022-07-06T12:50:08;35.70;54.60
22842;DHT22;11587;47.064;15.444;2022-07-06T12:52:35;35.10;51.70
22842;DHT22;11587;47.064;15.444;2022-07-06T12:55:03;34.80;53.20
22842;DHT22;11587;47.064;15.444;2022-07-06T12:57:45;34.80;51.60
22842;DHT22;11587;47.064;15.444;2022-07-06T13:00:12;35.30;54.60
22842;DHT22;11587;47.064;15.444;2022-07-06T13:02:38;35.50;57.90
22842;DHT22;11587;47.064;15.444;2022-07-06T13:05:06;36.20;52.00
22842;DHT22;11587;47.064;15.444;2022-07-06T13:07:33;36.40;51.00
22842;DHT22;11587;47.064;15.444;2022-07-06T13:10:10;34.50;50.90
22842;DHT22;11587;47.064;15.444;2022-07-06T13:12:36;34.00;52.40
22842;DHT22;11587;47.064;15.444;2022-07-06T13:15:03;34.10;52.70
22842;DHT22;11587;47.064;15.444;2022-07-06T13:17:30;34.70;54.70
22842;DHT22;11587;47.064;15.444;2022-07-06T13:19:56;35.80;54.10
22842;DHT22;11587;47.064;15.444;2022-07-06T13:22:21;35.70;51.40
22842;DHT22;11587;47.064;15.444;2022-07-06T13:24:48;36.00;53.60
22842;DHT22;11587;47.064;15.444;2022-07-06T13:27:15;35.60;53.20
22842;DHT22;11587;47.064;15.444;2022-07-06T13:29:41;36.20;50.30
22842;DHT22;11587;47.064;15.444;2022-07-06T13:32:07;35.80;51.70
22842;DHT22;11587;47.064;15.444;2022-07-06T13:34:33;35.70;52.50
22842;DHT22;11587;47.064;15.444;2022-07-06T13:37:01;35.70;50.40
22842;DHT22;11587;47.064;15.444;2022-07-06T13:39:27;34.90;50.30
22842;DHT22;11587;47.064;15.444;2022-07-06T13:41:53;33.00;51.70
22842;DHT22;11587;47.064;15.444;2022-07-06T13:44:19;32.40;54.80
22842;DHT22;11587;47.064;15.444;2022-07-06T13:46:45;32.00;56.20
22842;DHT22;11587;47.064;15.444;2022-07-06T13:49:11;31.30;55.10
22842;DHT22;11587;47.064;15.444;2022-07-06T13:51:38;31.30;55.10
22842;DHT22;11587;47.064;15.444;2022-07-06T13:54:04;32.10;57.80
22842;DHT22;11587;47.064;15.444;2022-07-06T13:56:30;33.30;56.10
22842;DHT22;11587;47.064;15.444;2022-07-06T13:58:56;33.60;53.30
22842;DHT22;11587;47.064;15.444;2022-07-06T14:01:23;32.00;54.60
22842;DHT22;11587;47.064;15.444;2022-07-06T14:03:49;33.00;54.40
22842;DHT22;11587;47.064;15.444;2022-07-06T14:06:15;33.80;55.20
22842;DHT22;11587;47.064;15.444;2022-07-06T14:08:42;34.20;52.80
22842;DHT22;11587;47.064;15.444;2022-07-06T14:11:09;34.90;51.00
22842;DHT22;11587;47.064;15.444;2022-07-06T14:13:36;35.30;52.60
22842;DHT22;11587;47.064;15.444;2022-07-06T14:16:03;34.50;52.80
22842;DHT22;11587;47.064;15.444;2022-07-06T14:18:30;34.50;51.30
22842;DHT22;11587;47.064;15.444;2022-07-06T14:20:57;34.90;52.40
22842;DHT22;11587;47.064;15.444;2022-07-06T14:23:23;35.00;52.40
22842;DHT22;11587;47.064;15.444;2022-07-06T14:25:50;35.40;51.30
22842;DHT22;11587;47.064;15.444;2022-07-06T14:28:17;35.50;52.50
22842;DHT22;11587;47.064;15.444;2022-07-06T14:30:44;35.70;55.70
22842;DHT22;11587;47.064;15.444;2022-07-06T14:33:12;35.00;51.60
22842;DHT22;11587;47.064;15.444;2022-07-06T14:35:40;34.10;52.30
22842;DHT22;11587;47.064;15.444;2022-07-06T14:38:07;33.80;54.50
22842;DHT22;11587;47.064;15.444;2022-07-06T14:40:34;34.20;55.20
22842;DHT22;11587;47.064;15.444;2022-07-06T14:43:01;34.10;53.00
22842;DHT22;11587;47.064;15.444;2022-07-06T14:45:28;34.40;54.20
22842;DHT22;11587;47.064;15.444;2022-07-06T14:47:54;34.40;52.60
22842;DHT22;11587;47.064;15.444;2022-07-06T14:50:20;34.70;53.80
22842;DHT22;11587;47.064;15.444;2022-07-06T14:52:46;35.00;53.70
22842;DHT22;11587;47.064;15.444;2022-07-06T14:55:12;34.90;56.80
22842;DHT22;11587;47.064;15.444;2022-07-06T14:57:38;34.50;56.40
22842;DHT22;11587;47.064;15.444;2022-07-06T15:00:04;35.10;54.00
22842;DHT22;11587;47.064;15.444;2022-07-06T15:02:31;34.40;56.00
22842;DHT22;11587;47.064;15.444;2022-07-06T15:04:57;34.30;52.80
22842;DHT22;11587;47.064;15.444;2022-07-06T15:07:23;33.40;53.40
22842;DHT22;11587;47.064;15.444;2022-07-06T15:09:49;33.50;55.30
22842;DHT22;11587;47.064;15.444;2022-07-06T15:12:15;34.00;56.70
22842;DHT22;11587;47.064;15.444;2022-07-06T15:14:41;33.50;55.10
22842;DHT22;11587;47.064;15.444;2022-07-06T15:17:06;33.50;58.40
22842;DHT22;11587;47.064;15.444;2022-07-06T15:19:33;33.10;59.50
22842;DHT22;11587;47.064;15.444;2022-07-06T15:21:59;32.70;56.90
22842;DHT22;11587;47.064;15.444;2022-07-06T15:24:25;32.00;56.10
22842;DHT22;11587;47.064;15.444;2022-07-06T15:26:51;31.60;60.20
22842;DHT22;11587;47.064;15.444;2022-07-06T15:29:17;31.60;58.00
22842;DHT22;11587;47.064;15.444;2022-07-06T15:31:43;30.70;56.70
22842;DHT22;11587;47.064;15.444;2022-07-06T15:34:09;30.50;60.50
22842;DHT22;11587;47.064;15.444;2022-07-06T15:36:34;30.70;58.90
22842;DHT22;11587;47.064;15.444;2022-07-06T15:39:01;31.00;59.30
22842;DHT22;11587;47.064;15.444;2022-07-06T15:41:28;31.10;59.00
22842;DHT22;11587;47.064;15.444;2022-07-06T15:43:54;31.50;58.10
22842;DHT22;11587;47.064;15.444;2022-07-06T15:46:19;31.50;59.70
22842;DHT22;11587;47.064;15.444;2022-07-06T15:48:46;31.60;61.40
22842;DHT22;11587;47.064;15.444;2022-07-06T15:51:12;31.20;58.60
22842;DHT22;11587;47.064;15.444;2022-07-06T15:56:03;30.60;61.60
22842;DHT22;11587;47.064;15.444;2022-07-06T15:58:29;30.50;61.70
22842;DHT22;11587;47.064;15.444;2022-07-06T16:00:55;29.70;60.00
22842;DHT22;11587;47.064;15.444;2022-07-06T16:05:47;29.70;63.20
22842;DHT22;11587;47.064;15.444;2022-07-06T16:08:13;29.60;65.20
22842;DHT22;11587;47.064;15.444;2022-07-06T16:10:39;29.70;63.00
22842;DHT22;11587;47.064;15.444;2022-07-06T16:13:05;29.50;62.10
22842;DHT22;11587;47.064;15.444;2022-07-06T16:15:31;29.40;63.50
22842;DHT22;11587;47.064;15.444;2022-07-06T16:22:51;29.30;64.60
22842;DHT22;11587;47.064;15.444;2022-07-06T16:25:18;29.10;60.90
22842;DHT22;11587;47.064;15.444;2022-07-06T16:27:47;28.90;65.20
22842;DHT22;11587;47.064;15.444;2022-07-06T16:30:14;29.00;67.30
22842;DHT22;11587;47.064;15.444;2022-07-06T16:32:40;28.80;68.00
22842;DHT22;11587;47.064;15.444;2022-07-06T16:35:07;28.80;68.20
22842;DHT22;11587;47.064;15.444;2022-07-06T16:37:33;28.80;69.20
22842;DHT22;11587;47.064;15.444;2022-07-06T16:39:59;28.60;68.00
22842;DHT22;11587;47.064;15.444;2022-07-06T16:42:28;28.50;64.30
22842;DHT22;11587;47.064;15.444;2022-07-06T16:49:45;28.20;66.10
22842;DHT22;11587;47.064;15.444;2022-07-06T16:52:11;28.20;65.30
22842;DHT22;11587;47.064;15.444;2022-07-06T16:54:36;28.10;67.50
22842;DHT22;11587;47.064;15.444;2022-07-06T16:57:02;27.90;68.10